sensor_id;sensor_type;location;lat;lon;timestamp;temperature;humidity
67974;DHT22;54756;51.140;6.952;2023-03-01T00:00:24;-2.90;53.60
67974;DHT22;54756;51.140;6.952;2023-03-01T00:02:25;-2.90;53.90
67974;DHT22;54756;51.140;6.952;2023-03-01T00:04:25;-2.90;54.10
67974;DHT22;54756;51.140;6.952;2023-03-01T00:06:27;-2.90;54.20
67974;DHT22;54756;51.140;6.952;2023-03-01T00:08:28;-2.90;54.20
67974;DHT22;54756;51.140;6.952;2023-03-01T00:10:30;-2.90;54.30
67974;DHT22;54756;51.140;6.952;2023-03-01T00:12:31;-3.00;54.40
67974;DHT22;54756;51.140;6.952;2023-03-01T00:14:32;-3.00;54.60
67974;DHT22;54756;51.140;6.952;2023-03-01T00:16:35;-3.00;54.60
67974;DHT22;54756;51.140;6.952;2023-03-01T00:18:36;-3.00;54.60
67974;DHT22;54756;51.140;6.952;2023-03-01T00:20:37;-3.00;55.40
67974;DHT22;54756;51.140;6.952;2023-03-01T00:22:37;-3.00;55.00
67974;DHT22;54756;51.140;6.952;2023-03-01T00:24:38;-3.10;55.10
67974;DHT22;54756;51.140;6.952;2023-03-01T00:26:38;-3.10;55.20
67974;DHT22;54756;51.140;6.952;2023-03-01T00:28:39;-3.10;55.30
67974;DHT22;54756;51.140;6.952;2023-03-01T00:30:40;-3.20;55.30
67974;DHT22;54756;51.140;6.952;2023-03-01T00:32:40;-3.10;55.60
67974;DHT22;54756;51.140;6.952;2023-03-01T00:34:41;-3.20;55.70
67974;DHT22;54756;51.140;6.952;2023-03-01T00:36:41;-3.20;55.90
67974;DHT22;54756;51.140;6.952;2023-03-01T00:38:44;-3.20;56.10
67974;DHT22;54756;51.140;6.952;2023-03-01T00:40:45;-3.20;56.20
67974;DHT22;54756;51.140;6.952;2023-03-01T00:42:45;-3.20;56.20
67974;DHT22;54756;51.140;6.952;2023-03-01T00:44:46;-3.20;56.00
67974;DHT22;54756;51.140;6.952;2023-03-01T00:46:46;-3.30;56.10
67974;DHT22;54756;51.140;6.952;2023-03-01T00:48:47;-3.30;56.30
67974;DHT22;54756;51.140;6.952;2023-03-01T00:50:48;-3.30;56.30
67974;DHT22;54756;51.140;6.952;2023-03-01T00:52:53;-3.40;56.20
67974;DHT22;54756;51.140;6.952;2023-03-01T00:54:53;-3.40;56.20
67974;DHT22;54756;51.140;6.952;2023-03-01T00:56:54;-3.40;56.50
67974;DHT22;54756;51.140;6.952;2023-03-01T00:58:55;-3.40;56.70
67974;DHT22;54756;51.140;6.952;2023-03-01T01:00:55;-3.40;57.00
67974;DHT22;54756;51.140;6.952;2023-03-01T01:02:56;-3.40;57.10
67974;DHT22;54756;51.140;6.952;2023-03-01T01:04:56;-3.40;57.30
67974;DHT22;54756;51.140;6.952;2023-03-01T01:06:57;-3.50;57.40
67974;DHT22;54756;51.140;6.952;2023-03-01T01:08:57;-3.50;57.40
67974;DHT22;54756;51.140;6.952;2023-03-01T01:10:58;-3.50;57.60
67974;DHT22;54756;51.140;6.952;2023-03-01T01:12:58;-3.50;57.60
67974;DHT22;54756;51.140;6.952;2023-03-01T01:14:59;-3.50;57.70
67974;DHT22;54756;51.140;6.952;2023-03-01T01:17:00;-3.50;57.70
67974;DHT22;54756;51.140;6.952;2023-03-01T01:19:00;-3.50;57.70
67974;DHT22;54756;51.140;6.952;2023-03-01T01:21:10;-3.50;57.70
67974;DHT22;54756;51.140;6.952;2023-03-01T01:23:11;-3.60;57.70
67974;DHT22;54756;51.140;6.952;2023-03-01T01:25:11;-3.60;58.00
67974;DHT22;54756;51.140;6.952;2023-03-01T01:27:12;-3.60;58.60
67974;DHT22;54756;51.140;6.952;2023-03-01T01:29:13;-3.60;58.10
67974;DHT22;54756;51.140;6.952;2023-03-01T01:31:14;-3.60;58.20
67974;DHT22;54756;51.140;6.952;2023-03-01T01:33:14;-3.60;58.20
67974;DHT22;54756;51.140;6.952;2023-03-01T01:35:15;-3.60;58.30
67974;DHT22;54756;51.140;6.952;2023-03-01T01:37:15;-3.60;58.40
67974;DHT22;54756;51.140;6.952;2023-03-01T01:39:16;-3.70;58.50
67974;DHT22;54756;51.140;6.952;2023-03-01T01:41:17;-3.70;58.50
67974;DHT22;54756;51.140;6.952;2023-03-01T01:43:25;-3.70;58.60
67974;DHT22;54756;51.140;6.952;2023-03-01T01:45:33;-3.70;58.60
67974;DHT22;54756;51.140;6.952;2023-03-01T01:47:33;-3.80;58.80
67974;DHT22;54756;51.140;6.952;2023-03-01T01:51:40;-3.80;59.20
67974;DHT22;54756;51.140;6.952;2023-03-01T01:53:42;-3.80;59.30
67974;DHT22;54756;51.140;6.952;2023-03-01T01:55:51;-3.80;59.70
67974;DHT22;54756;51.140;6.952;2023-03-01T01:57:54;-3.90;59.80
67974;DHT22;54756;51.140;6.952;2023-03-01T01:59:59;-3.90;59.70
67974;DHT22;54756;51.140;6.952;2023-03-01T02:02:00;-3.90;59.70
67974;DHT22;54756;51.140;6.952;2023-03-01T02:04:02;-3.90;60.00
67974;DHT22;54756;51.140;6.952;2023-03-01T02:08:12;-3.90;59.90
67974;DHT22;54756;51.140;6.952;2023-03-01T02:10:13;-3.90;60.00
67974;DHT22;54756;51.140;6.952;2023-03-01T02:12:17;-4.00;59.90
67974;DHT22;54756;51.140;6.952;2023-03-01T02:14:18;-4.00;60.00
67974;DHT22;54756;51.140;6.952;2023-03-01T02:16:19;-4.00;60.00
67974;DHT22;54756;51.140;6.952;2023-03-01T02:18:21;-4.00;60.10
67974;DHT22;54756;51.140;6.952;2023-03-01T02:20:30;-4.00;60.30
67974;DHT22;54756;51.140;6.952;2023-03-01T02:22:35;-4.00;60.40
67974;DHT22;54756;51.140;6.952;2023-03-01T02:27:10;-4.10;60.90
67974;DHT22;54756;51.140;6.952;2023-03-01T02:29:11;-4.10;61.10
67974;DHT22;54756;51.140;6.952;2023-03-01T02:31:17;-4.00;61.00
67974;DHT22;54756;51.140;6.952;2023-03-01T02:33:39;-4.10;60.90
67974;DHT22;54756;51.140;6.952;2023-03-01T02:35:39;-4.10;61.00
67974;DHT22;54756;51.140;6.952;2023-03-01T02:37:41;-4.10;61.00
67974;DHT22;54756;51.140;6.952;2023-03-01T02:39:46;-4.10;61.20
67974;DHT22;54756;51.140;6.952;2023-03-01T02:41:52;-4.10;61.20
67974;DHT22;54756;51.140;6.952;2023-03-01T02:43:53;-4.10;61.30
67974;DHT22;54756;51.140;6.952;2023-03-01T02:45:58;-4.10;61.70
67974;DHT22;54756;51.140;6.952;2023-03-01T02:47:58;-4.10;61.80
67974;DHT22;54756;51.140;6.952;2023-03-01T02:49:59;-4.10;61.30
67974;DHT22;54756;51.140;6.952;2023-03-01T02:54:45;-4.10;62.40
67974;DHT22;54756;51.140;6.952;2023-03-01T02:56:47;-4.10;62.70
67974;DHT22;54756;51.140;6.952;2023-03-01T02:58:51;-4.10;62.80
67974;DHT22;54756;51.140;6.952;2023-03-01T03:00:52;-4.10;63.00
67974;DHT22;54756;51.140;6.952;2023-03-01T03:02:54;-4.10;63.10
67974;DHT22;54756;51.140;6.952;2023-03-01T03:04:57;-4.10;63.10
67974;DHT22;54756;51.140;6.952;2023-03-01T03:06:57;-4.10;63.30
67974;DHT22;54756;51.140;6.952;2023-03-01T03:08:58;-4.10;63.50
67974;DHT22;54756;51.140;6.952;2023-03-01T03:10:59;-4.00;63.80
67974;DHT22;54756;51.140;6.952;2023-03-01T03:13:05;-4.00;64.70
67974;DHT22;54756;51.140;6.952;2023-03-01T03:15:07;-4.10;63.80
67974;DHT22;54756;51.140;6.952;2023-03-01T03:17:09;-4.00;63.90
67974;DHT22;54756;51.140;6.952;2023-03-01T03:19:09;-4.00;63.90
67974;DHT22;54756;51.140;6.952;2023-03-01T03:21:12;-4.00;64.10
67974;DHT22;54756;51.140;6.952;2023-03-01T03:23:13;-4.00;64.30
67974;DHT22;54756;51.140;6.952;2023-03-01T03:25:14;-4.00;64.40
67974;DHT22;54756;51.140;6.952;2023-03-01T03:27:14;-4.00;64.70
67974;DHT22;54756;51.140;6.952;2023-03-01T03:29:15;-4.00;65.00
67974;DHT22;54756;51.140;6.952;2023-03-01T03:31:16;-4.00;64.90
67974;DHT22;54756;51.140;6.952;2023-03-01T03:33:16;-4.00;64.70
67974;DHT22;54756;51.140;6.952;2023-03-01T03:35:19;-4.00;64.40
67974;DHT22;54756;51.140;6.952;2023-03-01T03:37:20;-4.00;64.50
67974;DHT22;54756;51.140;6.952;2023-03-01T03:39:39;-4.00;64.60
67974;DHT22;54756;51.140;6.952;2023-03-01T03:41:39;-4.00;65.10
67974;DHT22;54756;51.140;6.952;2023-03-01T03:43:41;-4.00;65.40
67974;DHT22;54756;51.140;6.952;2023-03-01T03:45:44;-4.00;65.50
67974;DHT22;54756;51.140;6.952;2023-03-01T03:47:45;-4.00;65.70
67974;DHT22;54756;51.140;6.952;2023-03-01T03:49:45;-4.00;65.80
67974;DHT22;54756;51.140;6.952;2023-03-01T03:51:46;-4.00;66.00
67974;DHT22;54756;51.140;6.952;2023-03-01T03:53:46;-4.00;65.90
67974;DHT22;54756;51.140;6.952;2023-03-01T03:55:47;-4.00;65.90
67974;DHT22;54756;51.140;6.952;2023-03-01T03:57:49;-4.00;66.00
67974;DHT22;54756;51.140;6.952;2023-03-01T03:59:54;-4.00;65.90
67974;DHT22;54756;51.140;6.952;2023-03-01T04:01:54;-4.00;66.00
67974;DHT22;54756;51.140;6.952;2023-03-01T04:03:55;-4.10;66.00
67974;DHT22;54756;51.140;6.952;2023-03-01T04:05:58;-4.00;66.20
67974;DHT22;54756;51.140;6.952;2023-03-01T04:07:59;-4.10;66.20
67974;DHT22;54756;51.140;6.952;2023-03-01T04:10:03;-4.10;66.30
67974;DHT22;54756;51.140;6.952;2023-03-01T04:12:04;-4.10;66.30
67974;DHT22;54756;51.140;6.952;2023-03-01T04:14:05;-4.10;66.20
67974;DHT22;54756;51.140;6.952;2023-03-01T04:16:06;-4.10;66.20
67974;DHT22;54756;51.140;6.952;2023-03-01T04:18:08;-4.20;66.00
67974;DHT22;54756;51.140;6.952;2023-03-01T04:20:14;-4.20;66.20
67974;DHT22;54756;51.140;6.952;2023-03-01T04:22:17;-4.20;66.30
67974;DHT22;54756;51.140;6.952;2023-03-01T04:24:18;-4.20;66.50
67974;DHT22;54756;51.140;6.952;2023-03-01T04:26:19;-4.20;66.50
67974;DHT22;54756;51.140;6.952;2023-03-01T04:28:34;-4.20;66.60
67974;DHT22;54756;51.140;6.952;2023-03-01T04:30:37;-4.30;66.40
67974;DHT22;54756;51.140;6.952;2023-03-01T04:32:37;-4.30;66.40
67974;DHT22;54756;51.140;6.952;2023-03-01T04:34:38;-4.30;66.80
67974;DHT22;54756;51.140;6.952;2023-03-01T04:36:39;-4.30;67.10
67974;DHT22;54756;51.140;6.952;2023-03-01T04:38:40;-4.40;67.10
67974;DHT22;54756;51.140;6.952;2023-03-01T04:40:41;-4.30;67.30
67974;DHT22;54756;51.140;6.952;2023-03-01T04:42:43;-4.30;67.30
67974;DHT22;54756;51.140;6.952;2023-03-01T04:44:44;-4.30;67.20
67974;DHT22;54756;51.140;6.952;2023-03-01T04:46:45;-4.40;67.20
67974;DHT22;54756;51.140;6.952;2023-03-01T04:48:46;-4.30;67.70
67974;DHT22;54756;51.140;6.952;2023-03-01T04:50:47;-4.30;68.00
67974;DHT22;54756;51.140;6.952;2023-03-01T04:52:48;-4.30;67.90
67974;DHT22;54756;51.140;6.952;2023-03-01T04:54:48;-4.30;67.80
67974;DHT22;54756;51.140;6.952;2023-03-01T04:56:49;-4.30;67.80
67974;DHT22;54756;51.140;6.952;2023-03-01T04:58:49;-4.40;68.00
67974;DHT22;54756;51.140;6.952;2023-03-01T05:00:53;-4.30;68.30
67974;DHT22;54756;51.140;6.952;2023-03-01T05:02:57;-4.30;68.20
67974;DHT22;54756;51.140;6.952;2023-03-01T05:04:57;-4.30;68.20
67974;DHT22;54756;51.140;6.952;2023-03-01T05:06:58;-4.30;68.30
67974;DHT22;54756;51.140;6.952;2023-03-01T05:08:59;-4.30;68.50
67974;DHT22;54756;51.140;6.952;2023-03-01T05:11:00;-4.30;68.60
67974;DHT22;54756;51.140;6.952;2023-03-01T05:13:01;-4.30;68.40
67974;DHT22;54756;51.140;6.952;2023-03-01T05:15:02;-4.30;68.20
67974;DHT22;54756;51.140;6.952;2023-03-01T05:17:07;-4.30;68.20
67974;DHT22;54756;51.140;6.952;2023-03-01T05:19:08;-4.40;68.10
67974;DHT22;54756;51.140;6.952;2023-03-01T05:21:15;-4.30;68.40
67974;DHT22;54756;51.140;6.952;2023-03-01T05:23:16;-4.40;68.40
67974;DHT22;54756;51.140;6.952;2023-03-01T05:25:17;-4.40;68.40
67974;DHT22;54756;51.140;6.952;2023-03-01T05:27:18;-4.40;68.40
67974;DHT22;54756;51.140;6.952;2023-03-01T05:29:23;-4.40;68.70
67974;DHT22;54756;51.140;6.952;2023-03-01T05:31:27;-4.40;68.80
67974;DHT22;54756;51.140;6.952;2023-03-01T05:33:27;-4.40;68.90
67974;DHT22;54756;51.140;6.952;2023-03-01T05:35:28;-4.40;69.00
67974;DHT22;54756;51.140;6.952;2023-03-01T05:37:29;-4.40;69.00
67974;DHT22;54756;51.140;6.952;2023-03-01T05:39:30;-4.40;68.90
67974;DHT22;54756;51.140;6.952;2023-03-01T05:41:31;-4.40;68.70
67974;DHT22;54756;51.140;6.952;2023-03-01T05:43:32;-4.40;68.70
67974;DHT22;54756;51.140;6.952;2023-03-01T05:45:37;-4.50;68.60
67974;DHT22;54756;51.140;6.952;2023-03-01T05:47:39;-4.40;69.10
67974;DHT22;54756;51.140;6.952;2023-03-01T05:49:43;-4.50;69.10
67974;DHT22;54756;51.140;6.952;2023-03-01T05:51:49;-4.50;68.80
67974;DHT22;54756;51.140;6.952;2023-03-01T05:53:49;-4.50;68.60
67974;DHT22;54756;51.140;6.952;2023-03-01T05:55:50;-4.50;68.80
67974;DHT22;54756;51.140;6.952;2023-03-01T05:57:51;-4.60;68.70
67974;DHT22;54756;51.140;6.952;2023-03-01T05:59:52;-4.60;68.80
67974;DHT22;54756;51.140;6.952;2023-03-01T06:01:52;-4.60;69.00
67974;DHT22;54756;51.140;6.952;2023-03-01T06:03:53;-4.60;69.00
67974;DHT22;54756;51.140;6.952;2023-03-01T06:05:57;-4.60;69.10
67974;DHT22;54756;51.140;6.952;2023-03-01T06:07:59;-4.60;69.30
67974;DHT22;54756;51.140;6.952;2023-03-01T06:10:01;-4.60;69.40
67974;DHT22;54756;51.140;6.952;2023-03-01T06:12:01;-4.60;69.40
67974;DHT22;54756;51.140;6.952;2023-03-01T06:14:03;-4.60;69.60
67974;DHT22;54756;51.140;6.952;2023-03-01T06:16:07;-4.60;69.90
67974;DHT22;54756;51.140;6.952;2023-03-01T06:18:08;-4.60;70.10
67974;DHT22;54756;51.140;6.952;2023-03-01T06:22:11;-4.50;70.70
67974;DHT22;54756;51.140;6.952;2023-03-01T06:24:12;-4.50;70.80
67974;DHT22;54756;51.140;6.952;2023-03-01T06:26:12;-4.50;70.50
67974;DHT22;54756;51.140;6.952;2023-03-01T06:28:13;-4.50;70.40
67974;DHT22;54756;51.140;6.952;2023-03-01T06:30:16;-4.50;70.40
67974;DHT22;54756;51.140;6.952;2023-03-01T06:32:17;-4.40;70.60
67974;DHT22;54756;51.140;6.952;2023-03-01T06:34:17;-4.40;70.60
67974;DHT22;54756;51.140;6.952;2023-03-01T06:36:18;-4.40;70.60
67974;DHT22;54756;51.140;6.952;2023-03-01T06:38:21;-4.40;70.30
67974;DHT22;54756;51.140;6.952;2023-03-01T06:40:21;-4.40;70.10
67974;DHT22;54756;51.140;6.952;2023-03-01T06:42:22;-4.30;70.30
67974;DHT22;54756;51.140;6.952;2023-03-01T06:44:22;-4.30;70.40
67974;DHT22;54756;51.140;6.952;2023-03-01T06:46:23;-4.20;70.70
67974;DHT22;54756;51.140;6.952;2023-03-01T06:48:23;-4.20;70.80
67974;DHT22;54756;51.140;6.952;2023-03-01T06:50:24;-4.10;70.90
67974;DHT22;54756;51.140;6.952;2023-03-01T06:52:25;-4.10;70.80
67974;DHT22;54756;51.140;6.952;2023-03-01T06:54:25;-4.00;71.10
67974;DHT22;54756;51.140;6.952;2023-03-01T06:56:26;-3.90;71.30
67974;DHT22;54756;51.140;6.952;2023-03-01T06:58:26;-3.90;71.10
67974;DHT22;54756;51.140;6.952;2023-03-01T07:00:27;-3.80;71.10
67974;DHT22;54756;51.140;6.952;2023-03-01T07:02:28;-3.80;70.90
67974;DHT22;54756;51.140;6.952;2023-03-01T07:04:28;-3.70;71.00
67974;DHT22;54756;51.140;6.952;2023-03-01T07:06:30;-3.60;71.10
67974;DHT22;54756;51.140;6.952;2023-03-01T07:08:31;-3.60;70.90
67974;DHT22;54756;51.140;6.952;2023-03-01T07:10:31;-3.50;70.80
67974;DHT22;54756;51.140;6.952;2023-03-01T07:12:32;-3.40;71.00
67974;DHT22;54756;51.140;6.952;2023-03-01T07:14:33;-3.40;70.80
67974;DHT22;54756;51.140;6.952;2023-03-01T07:16:33;-3.30;70.80
67974;DHT22;54756;51.140;6.952;2023-03-01T07:18:34;-3.20;70.90
67974;DHT22;54756;51.140;6.952;2023-03-01T07:20:34;-3.20;70.90
67974;DHT22;54756;51.140;6.952;2023-03-01T07:22:35;-3.10;71.00
67974;DHT22;54756;51.140;6.952;2023-03-01T07:24:35;-3.00;71.00
67974;DHT22;54756;51.140;6.952;2023-03-01T07:26:36;-3.00;70.80
67974;DHT22;54756;51.140;6.952;2023-03-01T07:28:37;-2.90;70.60
67974;DHT22;54756;51.140;6.952;2023-03-01T07:30:39;-2.80;70.50
67974;DHT22;54756;51.140;6.952;2023-03-01T07:32:40;-2.70;71.10
67974;DHT22;54756;51.140;6.952;2023-03-01T07:34:41;-2.60;71.10
67974;DHT22;54756;51.140;6.952;2023-03-01T07:36:41;-2.60;70.70
67974;DHT22;54756;51.140;6.952;2023-03-01T07:38:43;-2.50;70.50
67974;DHT22;54756;51.140;6.952;2023-03-01T07:40:44;-2.40;70.50
67974;DHT22;54756;51.140;6.952;2023-03-01T07:42:44;-2.30;70.20
67974;DHT22;54756;51.140;6.952;2023-03-01T07:44:45;-2.20;70.00
67974;DHT22;54756;51.140;6.952;2023-03-01T07:46:45;-2.10;69.70
67974;DHT22;54756;51.140;6.952;2023-03-01T07:48:46;-2.00;71.30
67974;DHT22;54756;51.140;6.952;2023-03-01T07:50:46;-1.90;72.00
67974;DHT22;54756;51.140;6.952;2023-03-01T07:52:48;-1.70;72.60
67974;DHT22;54756;51.140;6.952;2023-03-01T07:54:49;-1.50;72.10
67974;DHT22;54756;51.140;6.952;2023-03-01T07:56:50;-1.40;71.30
67974;DHT22;54756;51.140;6.952;2023-03-01T07:58:50;-1.30;70.50
67974;DHT22;54756;51.140;6.952;2023-03-01T08:00:51;-1.20;69.50
67974;DHT22;54756;51.140;6.952;2023-03-01T08:02:51;-1.10;68.50
67974;DHT22;54756;51.140;6.952;2023-03-01T08:04:52;-1.00;67.90
67974;DHT22;54756;51.140;6.952;2023-03-01T08:06:53;-0.90;67.40
67974;DHT22;54756;51.140;6.952;2023-03-01T08:08:54;-0.80;67.20
67974;DHT22;54756;51.140;6.952;2023-03-01T08:10:59;-0.70;66.70
67974;DHT22;54756;51.140;6.952;2023-03-01T08:13:00;-0.60;66.00
67974;DHT22;54756;51.140;6.952;2023-03-01T08:15:01;-0.40;65.90
67974;DHT22;54756;51.140;6.952;2023-03-01T08:17:02;-0.40;65.00
67974;DHT22;54756;51.140;6.952;2023-03-01T08:19:05;-0.20;64.80
67974;DHT22;54756;51.140;6.952;2023-03-01T08:21:17;-0.10;64.10
67974;DHT22;54756;51.140;6.952;2023-03-01T08:23:18;0.10;62.00
67974;DHT22;54756;51.140;6.952;2023-03-01T08:25:18;0.20;61.50
67974;DHT22;54756;51.140;6.952;2023-03-01T08:27:19;0.40;60.00
67974;DHT22;54756;51.140;6.952;2023-03-01T08:29:19;0.50;59.20
67974;DHT22;54756;51.140;6.952;2023-03-01T08:33:25;0.80;57.50
67974;DHT22;54756;51.140;6.952;2023-03-01T08:35:25;1.00;54.80
67974;DHT22;54756;51.140;6.952;2023-03-01T08:37:26;1.20;51.90
67974;DHT22;54756;51.140;6.952;2023-03-01T08:39:26;1.30;49.30
67974;DHT22;54756;51.140;6.952;2023-03-01T08:41:27;1.40;48.10
67974;DHT22;54756;51.140;6.952;2023-03-01T08:43:28;1.60;46.80
67974;DHT22;54756;51.140;6.952;2023-03-01T08:45:29;1.70;43.40
67974;DHT22;54756;51.140;6.952;2023-03-01T08:47:29;1.90;42.40
67974;DHT22;54756;51.140;6.952;2023-03-01T08:49:30;2.00;41.30
67974;DHT22;54756;51.140;6.952;2023-03-01T08:51:33;2.10;39.00
67974;DHT22;54756;51.140;6.952;2023-03-01T08:53:37;2.20;38.40
67974;DHT22;54756;51.140;6.952;2023-03-01T08:55:37;2.30;37.40
67974;DHT22;54756;51.140;6.952;2023-03-01T08:57:38;2.40;39.00
67974;DHT22;54756;51.140;6.952;2023-03-01T08:59:38;2.50;39.30
67974;DHT22;54756;51.140;6.952;2023-03-01T09:01:39;2.60;34.70
67974;DHT22;54756;51.140;6.952;2023-03-01T09:03:40;2.70;34.50
67974;DHT22;54756;51.140;6.952;2023-03-01T09:05:41;2.80;35.30
67974;DHT22;54756;51.140;6.952;2023-03-01T09:07:41;2.90;36.80
67974;DHT22;54756;51.140;6.952;2023-03-01T09:09:42;3.00;33.40
67974;DHT22;54756;51.140;6.952;2023-03-01T09:11:43;3.10;28.80
67974;DHT22;54756;51.140;6.952;2023-03-01T09:13:47;3.20;28.90
67974;DHT22;54756;51.140;6.952;2023-03-01T09:15:48;3.30;28.30
67974;DHT22;54756;51.140;6.952;2023-03-01T09:17:49;3.40;28.10
67974;DHT22;54756;51.140;6.952;2023-03-01T09:19:49;3.50;24.80
67974;DHT22;54756;51.140;6.952;2023-03-01T09:21:50;3.60;23.30
67974;DHT22;54756;51.140;6.952;2023-03-01T09:23:56;3.60;21.60
67974;DHT22;54756;51.140;6.952;2023-03-01T09:25:57;3.80;21.10
67974;DHT22;54756;51.140;6.952;2023-03-01T09:27:57;3.80;17.10
67974;DHT22;54756;51.140;6.952;2023-03-01T09:29:58;3.90;16.90
67974;DHT22;54756;51.140;6.952;2023-03-01T09:31:58;3.90;18.10
67974;DHT22;54756;51.140;6.952;2023-03-01T09:33:59;4.00;14.60
67974;DHT22;54756;51.140;6.952;2023-03-01T09:36:01;4.00;12.00
67974;DHT22;54756;51.140;6.952;2023-03-01T09:38:02;4.00;13.60
67974;DHT22;54756;51.140;6.952;2023-03-01T09:40:05;4.00;13.00
67974;DHT22;54756;51.140;6.952;2023-03-01T09:42:06;4.10;13.00
67974;DHT22;54756;51.140;6.952;2023-03-01T09:46:15;4.10;15.60
67974;DHT22;54756;51.140;6.952;2023-03-01T09:48:22;4.20;14.90
67974;DHT22;54756;51.140;6.952;2023-03-01T09:50:26;4.30;13.80
67974;DHT22;54756;51.140;6.952;2023-03-01T09:52:34;4.20;13.90
67974;DHT22;54756;51.140;6.952;2023-03-01T09:54:35;4.20;16.70
67974;DHT22;54756;51.140;6.952;2023-03-01T09:56:52;4.20;16.50
67974;DHT22;54756;51.140;6.952;2023-03-01T09:59:03;4.30;14.90
67974;DHT22;54756;51.140;6.952;2023-03-01T10:03:21;4.30;15.30
67974;DHT22;54756;51.140;6.952;2023-03-01T10:10:27;4.50;10.20
67974;DHT22;54756;51.140;6.952;2023-03-01T10:12:39;4.60;11.40
67974;DHT22;54756;51.140;6.952;2023-03-01T10:16:59;4.70;15.40
67974;DHT22;54756;51.140;6.952;2023-03-01T10:19:05;4.70;10.60
67974;DHT22;54756;51.140;6.952;2023-03-01T10:21:12;4.80;10.00
67974;DHT22;54756;51.140;6.952;2023-03-01T10:23:13;5.00;8.90
67974;DHT22;54756;51.140;6.952;2023-03-01T10:25:15;5.20;5.30
67974;DHT22;54756;51.140;6.952;2023-03-01T10:27:28;5.40;1.00
67974;DHT22;54756;51.140;6.952;2023-03-01T10:30:17;5.50;1.00
67974;DHT22;54756;51.140;6.952;2023-03-01T10:31:57;5.60;1.00
67974;DHT22;54756;51.140;6.952;2023-03-01T10:33:58;5.90;1.00
67974;DHT22;54756;51.140;6.952;2023-03-01T10:36:02;6.10;1.00
67974;DHT22;54756;51.140;6.952;2023-03-01T10:40:09;6.60;1.00
67974;DHT22;54756;51.140;6.952;2023-03-01T10:42:22;6.90;1.00
67974;DHT22;54756;51.140;6.952;2023-03-01T10:44:48;7.00;1.00
67974;DHT22;54756;51.140;6.952;2023-03-01T10:46:59;6.90;1.00
67974;DHT22;54756;51.140;6.952;2023-03-01T10:51:07;7.00;1.00
67974;DHT22;54756;51.140;6.952;2023-03-01T10:53:29;7.10;1.00
67974;DHT22;54756;51.140;6.952;2023-03-01T10:55:35;7.30;1.00
67974;DHT22;54756;51.140;6.952;2023-03-01T10:57:38;7.50;1.00
67974;DHT22;54756;51.140;6.952;2023-03-01T10:59:40;7.60;1.00
67974;DHT22;54756;51.140;6.952;2023-03-01T11:01:41;7.70;1.00
67974;DHT22;54756;51.140;6.952;2023-03-01T11:03:42;7.70;1.00
67974;DHT22;54756;51.140;6.952;2023-03-01T11:08:12;7.60;1.00
67974;DHT22;54756;51.140;6.952;2023-03-01T11:10:17;7.50;1.00
67974;DHT22;54756;51.140;6.952;2023-03-01T11:12:18;7.40;1.00
67974;DHT22;54756;51.140;6.952;2023-03-01T11:14:22;7.50;1.00
67974;DHT22;54756;51.140;6.952;2023-03-01T11:16:36;7.60;1.00
67974;DHT22;54756;51.140;6.952;2023-03-01T11:18:37;7.90;1.00
67974;DHT22;54756;51.140;6.952;2023-03-01T11:20:38;8.30;1.00
67974;DHT22;54756;51.140;6.952;2023-03-01T11:24:54;9.30;1.00
67974;DHT22;54756;51.140;6.952;2023-03-01T11:26:55;9.50;1.00
67974;DHT22;54756;51.140;6.952;2023-03-01T11:29:00;9.60;1.00
67974;DHT22;54756;51.140;6.952;2023-03-01T11:31:06;9.50;1.00
67974;DHT22;54756;51.140;6.952;2023-03-01T11:33:23;9.40;1.00
67974;DHT22;54756;51.140;6.952;2023-03-01T11:35:26;9.30;1.00
67974;DHT22;54756;51.140;6.952;2023-03-01T11:40:10;9.60;1.00
67974;DHT22;54756;51.140;6.952;2023-03-01T11:42:17;9.80;1.00
67974;DHT22;54756;51.140;6.952;2023-03-01T11:44:25;10.00;1.00
67974;DHT22;54756;51.140;6.952;2023-03-01T11:48:50;10.40;1.00
67974;DHT22;54756;51.140;6.952;2023-03-01T11:50:55;11.00;1.00
67974;DHT22;54756;51.140;6.952;2023-03-01T12:06:39;16.50;99.90
67974;DHT22;54756;51.140;6.952;2023-03-01T12:11:52;18.00;99.90
67974;DHT22;54756;51.140;6.952;2023-03-01T12:16:48;20.00;1.00
67974;DHT22;54756;51.140;6.952;2023-03-01T12:24:06;21.60;1.00
67974;DHT22;54756;51.140;6.952;2023-03-01T12:29:24;21.80;99.90
67974;DHT22;54756;51.140;6.952;2023-03-01T12:33:53;22.30;1.00
67974;DHT22;54756;51.140;6.952;2023-03-01T12:38:14;23.20;1.00
67974;DHT22;54756;51.140;6.952;2023-03-01T12:42:33;24.30;1.00
67974;DHT22;54756;51.140;6.952;2023-03-01T12:49:18;25.10;99.90
67974;DHT22;54756;51.140;6.952;2023-03-01T12:51:26;25.30;99.90
67974;DHT22;54756;51.140;6.952;2023-03-01T12:53:36;25.60;99.90
67974;DHT22;54756;51.140;6.952;2023-03-01T12:55:42;25.50;99.90
67974;DHT22;54756;51.140;6.952;2023-03-01T12:57:48;25.70;99.90
67974;DHT22;54756;51.140;6.952;2023-03-01T13:07:27;26.00;1.00
67974;DHT22;54756;51.140;6.952;2023-03-01T13:09:54;25.90;1.00
67974;DHT22;54756;51.140;6.952;2023-03-01T13:11:56;26.20;1.00
67974;DHT22;54756;51.140;6.952;2023-03-01T13:16:39;26.90;1.00
67974;DHT22;54756;51.140;6.952;2023-03-01T13:18:40;27.10;1.00
67974;DHT22;54756;51.140;6.952;2023-03-01T13:22:46;27.10;1.00
67974;DHT22;54756;51.140;6.952;2023-03-01T13:24:47;27.20;1.00
67974;DHT22;54756;51.140;6.952;2023-03-01T13:29:26;27.80;1.00
67974;DHT22;54756;51.140;6.952;2023-03-01T13:37:33;29.00;1.00
67974;DHT22;54756;51.140;6.952;2023-03-01T13:39:39;29.30;1.00
67974;DHT22;54756;51.140;6.952;2023-03-01T13:43:46;29.60;1.00
67974;DHT22;54756;51.140;6.952;2023-03-01T13:45:47;29.60;1.00
67974;DHT22;54756;51.140;6.952;2023-03-01T13:47:52;29.80;1.00
67974;DHT22;54756;51.140;6.952;2023-03-01T13:50:02;29.70;1.00
67974;DHT22;54756;51.140;6.952;2023-03-01T13:52:05;29.60;1.00
67974;DHT22;54756;51.140;6.952;2023-03-01T13:54:11;29.50;1.00
67974;DHT22;54756;51.140;6.952;2023-03-01T13:56:16;28.70;1.00
67974;DHT22;54756;51.140;6.952;2023-03-01T13:58:46;28.80;1.00
67974;DHT22;54756;51.140;6.952;2023-03-01T14:00:47;29.00;99.90
67974;DHT22;54756;51.140;6.952;2023-03-01T14:03:00;29.50;1.00
67974;DHT22;54756;51.140;6.952;2023-03-01T14:05:01;30.10;99.90
67974;DHT22;54756;51.140;6.952;2023-03-01T14:07:22;30.00;99.90
67974;DHT22;54756;51.140;6.952;2023-03-01T14:09:27;28.80;99.90
67974;DHT22;54756;51.140;6.952;2023-03-01T14:11:49;28.30;99.90
67974;DHT22;54756;51.140;6.952;2023-03-01T14:16:33;28.20;99.90
67974;DHT22;54756;51.140;6.952;2023-03-01T14:21:08;27.50;99.90
67974;DHT22;54756;51.140;6.952;2023-03-01T14:23:13;27.10;99.90
67974;DHT22;54756;51.140;6.952;2023-03-01T14:25:29;27.70;99.90
67974;DHT22;54756;51.140;6.952;2023-03-01T14:27:38;28.60;99.90
67974;DHT22;54756;51.140;6.952;2023-03-01T14:29:42;29.40;99.90
67974;DHT22;54756;51.140;6.952;2023-03-01T14:31:42;30.00;99.90
67974;DHT22;54756;51.140;6.952;2023-03-01T14:33:55;30.60;99.90
67974;DHT22;54756;51.140;6.952;2023-03-01T14:36:03;30.90;99.90
67974;DHT22;54756;51.140;6.952;2023-03-01T14:38:04;30.90;99.90
67974;DHT22;54756;51.140;6.952;2023-03-01T14:40:05;30.70;99.90
67974;DHT22;54756;51.140;6.952;2023-03-01T14:42:25;29.80;99.90
67974;DHT22;54756;51.140;6.952;2023-03-01T14:44:27;28.60;99.90
67974;DHT22;54756;51.140;6.952;2023-03-01T14:46:34;28.70;99.90
67974;DHT22;54756;51.140;6.952;2023-03-01T14:48:35;29.00;99.90